PWSweather.com
Personal Weather Stations
Station Observations
ILOMBARD30
LodiIT 26900

LodiIT 26900

Lat: 45.2993, Lon: 9.5207

Elevation: 255

Station Type: Davis Vantege Pro2 Plus 24h

http://www.meteo-iw2gob.it

High Low Average
Temperature 39.7°F4.3°C 33.6°F0.9°C 37.2°F2.9°C
Dew Point 37.6°F3.1°C 31.8°F-0.1°C 35.3°F1.8°C
Winds 10.4 mph 16.7 kmh Calm Calm 4.0 mph SW6.4 kmh SW
Wind Gusts 13.8 mph22.2 kmh -- 5.0 mph8.0 kmh
Humidity 93% 91% 92%
Pressure 30.43 in1030.5 mb 30.05 in1017.6 mb -
Precipitation 0.00 in0.0 mm - -
Hour Temp Dew Point Humidity Winds Wind Gusts Pressure Precip Precip Rate Daily Precip Total
12:00 AM 36.5°F2.5°C 34.1°F1.2°C 91% 2.3 mph E3.7 kmh E 2.3 mph3.7 kmh 30.36 in1028.1 mb - 0.00 in0.0 mm 0.00 in0.0 mm
12:05 AM 36.4°F2.4°C 34.0°F1.1°C 91% 1.2 mph E1.9 kmh E 2.3 mph3.7 kmh 30.36 in1028.1 mb - 0.00 in0.0 mm 0.00 in0.0 mm
12:10 AM 36.3°F2.4°C 33.9°F1.1°C 91% 1.2 mph E1.9 kmh E 1.2 mph1.9 kmh 30.36 in1028.1 mb - 0.00 in0.0 mm 0.00 in0.0 mm
12:15 AM 36.2°F2.3°C 33.8°F1.0°C 91% 2.3 mph E3.7 kmh E 3.5 mph5.6 kmh 30.36 in1028.1 mb - 0.00 in0.0 mm 0.00 in0.0 mm
12:20 AM 36.2°F2.3°C 34.1°F1.2°C 92% 1.2 mph E1.9 kmh E 2.3 mph3.7 kmh 30.36 in1028.1 mb - 0.00 in0.0 mm 0.00 in0.0 mm
12:25 AM 36.1°F2.3°C 33.7°F0.9°C 91% 1.2 mph E1.9 kmh E 2.3 mph3.7 kmh 30.36 in1028.1 mb - 0.00 in0.0 mm 0.00 in0.0 mm
12:30 AM 36.1°F2.3°C 33.7°F0.9°C 91% 1.2 mph E1.9 kmh E 2.3 mph3.7 kmh 30.36 in1028.1 mb - 0.00 in0.0 mm 0.00 in0.0 mm
12:35 AM 36.0°F2.2°C 33.6°F0.9°C 91% 2.3 mph E3.7 kmh E 3.5 mph5.6 kmh 30.36 in1028.1 mb - 0.00 in0.0 mm 0.00 in0.0 mm
12:40 AM 35.9°F2.2°C 33.8°F1.0°C 92% 2.3 mph E3.7 kmh E 2.3 mph3.7 kmh 30.37 in1028.4 mb - 0.00 in0.0 mm 0.00 in0.0 mm
12:45 AM 35.9°F2.2°C 33.8°F1.0°C 92% Calm Calm 2.3 mph3.7 kmh 30.37 in1028.4 mb - 0.00 in0.0 mm 0.00 in0.0 mm
12:50 AM 35.8°F2.1°C 33.7°F0.9°C 92% 2.3 mph E3.7 kmh E 2.3 mph3.7 kmh 30.37 in1028.4 mb - 0.00 in0.0 mm 0.00 in0.0 mm
12:55 AM 35.8°F2.1°C 33.7°F0.9°C 92% 1.2 mph E1.9 kmh E 2.3 mph3.7 kmh 30.37 in1028.4 mb - 0.00 in0.0 mm 0.00 in0.0 mm
01:00 AM 35.7°F2.1°C 33.6°F0.9°C 92% 1.2 mph E1.9 kmh E 2.3 mph3.7 kmh 30.37 in1028.4 mb - 0.00 in0.0 mm 0.00 in0.0 mm
01:05 AM 35.6°F2.0°C 33.5°F0.8°C 92% 1.2 mph E1.9 kmh E 2.3 mph3.7 kmh 30.37 in1028.4 mb - 0.00 in0.0 mm 0.00 in0.0 mm
01:10 AM 35.5°F1.9°C 33.4°F0.8°C 92% 1.2 mph E1.9 kmh E 2.3 mph3.7 kmh 30.37 in1028.4 mb - 0.00 in0.0 mm 0.00 in0.0 mm
01:15 AM 35.5°F1.9°C 33.4°F0.8°C 92% 1.2 mph E1.9 kmh E 2.3 mph3.7 kmh 30.37 in1028.4 mb - 0.00 in0.0 mm 0.00 in0.0 mm
01:20 AM 35.5°F1.9°C 33.4°F0.8°C 92% 2.3 mph E3.7 kmh E 3.5 mph5.6 kmh 30.37 in1028.4 mb - 0.00 in0.0 mm 0.00 in0.0 mm
01:25 AM 35.6°F2.0°C 33.5°F0.8°C 92% 1.2 mph E1.9 kmh E 3.5 mph5.6 kmh 30.37 in1028.4 mb - 0.00 in0.0 mm 0.00 in0.0 mm
01:30 AM 35.7°F2.1°C 33.6°F0.9°C 92% 2.3 mph E3.7 kmh E 3.5 mph5.6 kmh 30.37 in1028.4 mb - 0.00 in0.0 mm 0.00 in0.0 mm
01:35 AM 35.6°F2.0°C 33.5°F0.8°C 92% Calm Calm 1.2 mph1.9 kmh 30.37 in1028.4 mb - 0.00 in0.0 mm 0.00 in0.0 mm
01:40 AM 35.5°F1.9°C 33.7°F0.9°C 93% 1.2 mph E1.9 kmh E 1.2 mph1.9 kmh 30.37 in1028.4 mb - 0.00 in0.0 mm 0.00 in0.0 mm
01:45 AM 35.5°F1.9°C 33.6°F0.9°C 93% 1.2 mph E1.9 kmh E 2.3 mph3.7 kmh 30.38 in1028.8 mb - 0.00 in0.0 mm 0.00 in0.0 mm
01:50 AM 35.4°F1.9°C 33.3°F0.7°C 92% 1.2 mph E1.9 kmh E 2.3 mph3.7 kmh 30.38 in1028.8 mb - 0.00 in0.0 mm 0.00 in0.0 mm
01:55 AM 35.2°F1.8°C 33.1°F0.6°C 92% 1.2 mph E1.9 kmh E 2.3 mph3.7 kmh 30.38 in1028.8 mb - 0.00 in0.0 mm 0.00 in0.0 mm
02:00 AM 35.1°F1.7°C 33.0°F0.6°C 92% Calm Calm 2.3 mph3.7 kmh 30.39 in1029.1 mb - 0.00 in0.0 mm 0.00 in0.0 mm
02:05 AM 35.0°F1.7°C 33.2°F0.7°C 93% 1.2 mph E1.9 kmh E 2.3 mph3.7 kmh 30.39 in1029.1 mb - 0.00 in0.0 mm 0.00 in0.0 mm
02:10 AM 35.0°F1.7°C 33.2°F0.7°C 93% Calm Calm 1.2 mph1.9 kmh 30.39 in1029.1 mb - 0.00 in0.0 mm 0.00 in0.0 mm
02:15 AM 35.0°F1.7°C 33.2°F0.7°C 93% 1.2 mph E1.9 kmh E 2.3 mph3.7 kmh 30.39 in1029.1 mb - 0.00 in0.0 mm 0.00 in0.0 mm
02:20 AM 35.0°F1.7°C 33.2°F0.7°C 93% 1.2 mph E1.9 kmh E 2.3 mph3.7 kmh 30.40 in1029.5 mb - 0.00 in0.0 mm 0.00 in0.0 mm
02:25 AM 35.0°F1.7°C 33.2°F0.7°C 93% 1.2 mph E1.9 kmh E 2.3 mph3.7 kmh 30.40 in1029.5 mb - 0.00 in0.0 mm 0.00 in0.0 mm
02:30 AM 35.1°F1.7°C 33.3°F0.7°C 93% 1.2 mph E1.9 kmh E 1.2 mph1.9 kmh 30.40 in1029.5 mb - 0.00 in0.0 mm 0.00 in0.0 mm
02:35 AM 35.2°F1.8°C 33.3°F0.7°C 93% 1.2 mph E1.9 kmh E 2.3 mph3.7 kmh 30.40 in1029.5 mb - 0.00 in0.0 mm 0.00 in0.0 mm
02:40 AM 35.2°F1.8°C 33.4°F0.8°C 93% Calm Calm -- 30.40 in1029.5 mb - 0.00 in0.0 mm 0.00 in0.0 mm
02:45 AM 35.4°F1.9°C 33.5°F0.8°C 93% Calm Calm -- 30.40 in1029.5 mb - 0.00 in0.0 mm 0.00 in0.0 mm
02:50 AM 35.5°F1.9°C 33.7°F0.9°C 93% Calm Calm -- 30.39 in1029.1 mb - 0.00 in0.0 mm 0.00 in0.0 mm
02:55 AM 35.6°F2.0°C 33.8°F1.0°C 93% Calm Calm -- 30.39 in1029.1 mb - 0.00 in0.0 mm 0.00 in0.0 mm
03:00 AM 35.7°F2.1°C 33.9°F1.1°C 93% Calm Calm -- 30.39 in1029.1 mb - 0.00 in0.0 mm 0.00 in0.0 mm
03:05 AM 35.8°F2.1°C 34.0°F1.1°C 93% Calm Calm -- 30.40 in1029.5 mb - 0.00 in0.0 mm 0.00 in0.0 mm
03:10 AM 36.0°F2.2°C 34.2°F1.2°C 93% Calm Calm -- 30.40 in1029.5 mb - 0.00 in0.0 mm 0.00 in0.0 mm
03:15 AM 36.1°F2.3°C 34.3°F1.3°C 93% Calm Calm -- 30.40 in1029.5 mb - 0.00 in0.0 mm 0.00 in0.0 mm
03:20 AM 36.1°F2.3°C 34.3°F1.3°C 93% Calm Calm -- 30.40 in1029.5 mb - 0.00 in0.0 mm 0.00 in0.0 mm
03:25 AM 36.1°F2.3°C 34.3°F1.3°C 93% Calm Calm -- 30.40 in1029.5 mb - 0.00 in0.0 mm 0.00 in0.0 mm
03:30 AM 36.2°F2.3°C 34.3°F1.3°C 93% Calm Calm -- 30.40 in1029.5 mb - 0.00 in0.0 mm 0.00 in0.0 mm
03:35 AM 36.1°F2.3°C 34.3°F1.3°C 93% Calm Calm -- 30.40 in1029.5 mb - 0.00 in0.0 mm 0.00 in0.0 mm
03:40 AM 36.2°F2.3°C 34.4°F1.3°C 93% Calm Calm -- 30.40 in1029.5 mb - 0.00 in0.0 mm 0.00 in0.0 mm
03:45 AM 36.3°F2.4°C 34.5°F1.4°C 93% Calm Calm -- 30.40 in1029.5 mb - 0.00 in0.0 mm 0.00 in0.0 mm
03:50 AM 36.4°F2.4°C 34.6°F1.4°C 93% Calm Calm -- 30.39 in1029.1 mb - 0.00 in0.0 mm 0.00 in0.0 mm
03:55 AM 36.5°F2.5°C 34.7°F1.5°C 93% Calm Calm -- 30.39 in1029.1 mb - 0.00 in0.0 mm 0.00 in0.0 mm
04:00 AM 36.6°F2.6°C 34.8°F1.6°C 93% Calm Calm 1.2 mph1.9 kmh 30.39 in1029.1 mb - 0.00 in0.0 mm 0.00 in0.0 mm
04:05 AM 36.7°F2.6°C 34.9°F1.6°C 93% Calm Calm 1.2 mph1.9 kmh 30.40 in1029.5 mb - 0.00 in0.0 mm 0.00 in0.0 mm
04:10 AM 36.8°F2.7°C 35.0°F1.7°C 93% Calm Calm 2.3 mph3.7 kmh 30.39 in1029.1 mb - 0.00 in0.0 mm 0.00 in0.0 mm
04:15 AM 36.8°F2.7°C 35.0°F1.7°C 93% 1.2 mph W1.9 kmh W 2.3 mph3.7 kmh 30.39 in1029.1 mb - 0.00 in0.0 mm 0.00 in0.0 mm
04:20 AM 36.8°F2.7°C 35.0°F1.7°C 93% Calm Calm 1.2 mph1.9 kmh 30.39 in1029.1 mb - 0.00 in0.0 mm 0.00 in0.0 mm
04:25 AM 36.8°F2.7°C 35.0°F1.7°C 93% 1.2 mph W1.9 kmh W 2.3 mph3.7 kmh 30.39 in1029.1 mb - 0.00 in0.0 mm 0.00 in0.0 mm
04:30 AM 36.8°F2.7°C 35.0°F1.7°C 93% 1.2 mph W1.9 kmh W 2.3 mph3.7 kmh 30.39 in1029.1 mb - 0.00 in0.0 mm 0.00 in0.0 mm
04:35 AM 36.8°F2.7°C 35.0°F1.7°C 93% 1.2 mph W1.9 kmh W 2.3 mph3.7 kmh 30.39 in1029.1 mb - 0.00 in0.0 mm 0.00 in0.0 mm
04:40 AM 36.8°F2.7°C 35.0°F1.7°C 93% 2.3 mph W3.7 kmh W 3.5 mph5.6 kmh 30.40 in1029.5 mb - 0.00 in0.0 mm 0.00 in0.0 mm
04:45 AM 36.8°F2.7°C 35.0°F1.7°C 93% 1.2 mph W1.9 kmh W 1.2 mph1.9 kmh 30.40 in1029.5 mb - 0.00 in0.0 mm 0.00 in0.0 mm
04:50 AM 36.8°F2.7°C 35.0°F1.7°C 93% 1.2 mph W1.9 kmh W 2.3 mph3.7 kmh 30.40 in1029.5 mb - 0.00 in0.0 mm 0.00 in0.0 mm
04:55 AM 36.8°F2.7°C 35.0°F1.7°C 93% Calm Calm -- 30.39 in1029.1 mb - 0.00 in0.0 mm 0.00 in0.0 mm
05:00 AM 36.8°F2.7°C 35.0°F1.7°C 93% Calm Calm -- 30.39 in1029.1 mb - 0.00 in0.0 mm 0.00 in0.0 mm
05:05 AM 36.8°F2.7°C 35.0°F1.7°C 93% Calm Calm -- 30.39 in1029.1 mb - 0.00 in0.0 mm 0.00 in0.0 mm
05:10 AM 36.8°F2.7°C 35.0°F1.7°C 93% Calm Calm -- 30.39 in1029.1 mb - 0.00 in0.0 mm 0.00 in0.0 mm
05:15 AM 36.9°F2.7°C 35.0°F1.7°C 93% Calm Calm -- 30.39 in1029.1 mb - 0.00 in0.0 mm 0.00 in0.0 mm
05:20 AM 36.9°F2.7°C 35.1°F1.7°C 93% Calm Calm -- 30.39 in1029.1 mb - 0.00 in0.0 mm 0.00 in0.0 mm
05:25 AM 37.0°F2.8°C 35.2°F1.8°C 93% Calm Calm -- 30.39 in1029.1 mb - 0.00 in0.0 mm 0.00 in0.0 mm
05:30 AM 37.0°F2.8°C 35.2°F1.8°C 93% Calm Calm -- 30.39 in1029.1 mb - 0.00 in0.0 mm 0.00 in0.0 mm
05:35 AM 37.1°F2.8°C 35.3°F1.8°C 93% Calm Calm -- 30.39 in1029.1 mb - 0.00 in0.0 mm 0.00 in0.0 mm
05:40 AM 37.3°F2.9°C 35.4°F1.9°C 93% 1.2 mph W1.9 kmh W 3.5 mph5.6 kmh 30.39 in1029.1 mb - 0.00 in0.0 mm 0.00 in0.0 mm
05:45 AM 37.4°F3.0°C 35.6°F2.0°C 93% Calm Calm -- 30.39 in1029.1 mb - 0.00 in0.0 mm 0.00 in0.0 mm
05:50 AM 37.5°F3.1°C 35.7°F2.1°C 93% Calm Calm 1.2 mph1.9 kmh 30.39 in1029.1 mb - 0.00 in0.0 mm 0.00 in0.0 mm
05:55 AM 37.6°F3.1°C 35.8°F2.1°C 93% 1.2 mph W1.9 kmh W 2.3 mph3.7 kmh 30.39 in1029.1 mb - 0.00 in0.0 mm 0.00 in0.0 mm
06:00 AM 37.8°F3.2°C 35.9°F2.2°C 93% 1.2 mph W1.9 kmh W 2.3 mph3.7 kmh 30.40 in1029.5 mb - 0.00 in0.0 mm 0.00 in0.0 mm
06:05 AM 37.9°F3.3°C 36.1°F2.3°C 93% Calm Calm 2.3 mph3.7 kmh 30.40 in1029.5 mb - 0.00 in0.0 mm 0.00 in0.0 mm
06:10 AM 37.9°F3.3°C 36.1°F2.3°C 93% 1.2 mph W1.9 kmh W 2.3 mph3.7 kmh 30.40 in1029.5 mb - 0.00 in0.0 mm 0.00 in0.0 mm
06:15 AM 37.9°F3.3°C 36.1°F2.3°C 93% 2.3 mph SW3.7 kmh SW 3.5 mph5.6 kmh 30.40 in1029.5 mb - 0.00 in0.0 mm 0.00 in0.0 mm
06:20 AM 38.0°F3.3°C 36.2°F2.3°C 93% 3.5 mph WSW5.6 kmh WSW 3.5 mph5.6 kmh 30.41 in1029.8 mb - 0.00 in0.0 mm 0.00 in0.0 mm
06:25 AM 38.0°F3.3°C 36.1°F2.3°C 93% 2.3 mph SW3.7 kmh SW 3.5 mph5.6 kmh 30.40 in1029.5 mb - 0.00 in0.0 mm 0.00 in0.0 mm
06:30 AM 37.9°F3.3°C 36.1°F2.3°C 93% 2.3 mph WSW3.7 kmh WSW 4.6 mph7.4 kmh 30.41 in1029.8 mb - 0.00 in0.0 mm 0.00 in0.0 mm
06:35 AM 37.9°F3.3°C 36.1°F2.3°C 93% 2.3 mph WSW3.7 kmh WSW 3.5 mph5.6 kmh 30.41 in1029.8 mb - 0.00 in0.0 mm 0.00 in0.0 mm
06:40 AM 37.8°F3.2°C 36.0°F2.2°C 93% 2.3 mph W3.7 kmh W 2.3 mph3.7 kmh 30.41 in1029.8 mb - 0.00 in0.0 mm 0.00 in0.0 mm
06:45 AM 37.8°F3.2°C 36.0°F2.2°C 93% 2.3 mph WSW3.7 kmh WSW 4.6 mph7.4 kmh 30.40 in1029.5 mb - 0.00 in0.0 mm 0.00 in0.0 mm
06:50 AM 37.8°F3.2°C 36.0°F2.2°C 93% 2.3 mph WSW3.7 kmh WSW 3.5 mph5.6 kmh 30.41 in1029.8 mb - 0.00 in0.0 mm 0.00 in0.0 mm
06:55 AM 37.9°F3.3°C 36.1°F2.3°C 93% 3.5 mph SW5.6 kmh SW 5.8 mph9.3 kmh 30.41 in1029.8 mb - 0.00 in0.0 mm 0.00 in0.0 mm
07:00 AM 37.9°F3.3°C 36.1°F2.3°C 93% 3.5 mph SW5.6 kmh SW 4.6 mph7.4 kmh 30.40 in1029.5 mb - 0.00 in0.0 mm 0.00 in0.0 mm
07:05 AM 37.9°F3.3°C 36.1°F2.3°C 93% 3.5 mph SW5.6 kmh SW 5.8 mph9.3 kmh 30.40 in1029.5 mb - 0.00 in0.0 mm 0.00 in0.0 mm
07:10 AM 37.9°F3.3°C 36.1°F2.3°C 93% 3.5 mph SW5.6 kmh SW 4.6 mph7.4 kmh 30.40 in1029.5 mb - 0.00 in0.0 mm 0.00 in0.0 mm
07:15 AM 37.9°F3.3°C 36.1°F2.3°C 93% 5.8 mph SW9.3 kmh SW 9.2 mph14.8 kmh 30.40 in1029.5 mb - 0.00 in0.0 mm 0.00 in0.0 mm
07:20 AM 37.8°F3.2°C 36.0°F2.2°C 93% 5.8 mph SW9.3 kmh SW 8.1 mph13.0 kmh 30.40 in1029.5 mb - 0.00 in0.0 mm 0.00 in0.0 mm
07:25 AM 37.7°F3.2°C 35.9°F2.2°C 93% 5.8 mph WSW9.3 kmh WSW 6.9 mph11.1 kmh 30.41 in1029.8 mb - 0.00 in0.0 mm 0.00 in0.0 mm
07:30 AM 37.7°F3.2°C 35.9°F2.2°C 93% 2.3 mph WSW3.7 kmh WSW 3.5 mph5.6 kmh 30.41 in1029.8 mb - 0.00 in0.0 mm 0.00 in0.0 mm
07:35 AM 37.7°F3.2°C 35.9°F2.2°C 93% 2.3 mph WSW3.7 kmh WSW 3.5 mph5.6 kmh 30.41 in1029.8 mb - 0.00 in0.0 mm 0.00 in0.0 mm
07:40 AM 37.7°F3.2°C 35.9°F2.2°C 93% 3.5 mph WSW5.6 kmh WSW 4.6 mph7.4 kmh 30.41 in1029.8 mb - 0.00 in0.0 mm 0.00 in0.0 mm
07:45 AM 37.6°F3.1°C 35.8°F2.1°C 93% 3.5 mph WSW5.6 kmh WSW 4.6 mph7.4 kmh 30.41 in1029.8 mb - 0.00 in0.0 mm 0.00 in0.0 mm
07:50 AM 37.5°F3.1°C 35.7°F2.1°C 93% 3.5 mph WSW5.6 kmh WSW 3.5 mph5.6 kmh 30.41 in1029.8 mb - 0.00 in0.0 mm 0.00 in0.0 mm
07:55 AM 37.4°F3.0°C 35.6°F2.0°C 93% 3.5 mph WSW5.6 kmh WSW 3.5 mph5.6 kmh 30.41 in1029.8 mb - 0.00 in0.0 mm 0.00 in0.0 mm
08:00 AM 37.4°F3.0°C 35.5°F1.9°C 93% 4.6 mph WSW7.4 kmh WSW 5.8 mph9.3 kmh 30.41 in1029.8 mb - 0.00 in0.0 mm 0.00 in0.0 mm
08:05 AM 37.4°F3.0°C 35.5°F1.9°C 93% 2.3 mph WSW3.7 kmh WSW 3.5 mph5.6 kmh 30.41 in1029.8 mb - 0.00 in0.0 mm 0.00 in0.0 mm
08:10 AM 37.4°F3.0°C 35.6°F2.0°C 93% 1.2 mph W1.9 kmh W 2.3 mph3.7 kmh 30.41 in1029.8 mb - 0.00 in0.0 mm 0.00 in0.0 mm
08:15 AM 37.4°F3.0°C 35.6°F2.0°C 93% 1.2 mph W1.9 kmh W 2.3 mph3.7 kmh 30.42 in1030.1 mb - 0.00 in0.0 mm 0.00 in0.0 mm
08:20 AM 37.4°F3.0°C 35.6°F2.0°C 93% 3.5 mph WSW5.6 kmh WSW 5.8 mph9.3 kmh 30.42 in1030.1 mb - 0.00 in0.0 mm 0.00 in0.0 mm
08:25 AM 37.3°F2.9°C 35.5°F1.9°C 93% 2.3 mph SW3.7 kmh SW 3.5 mph5.6 kmh 30.42 in1030.1 mb - 0.00 in0.0 mm 0.00 in0.0 mm
08:30 AM 37.2°F2.9°C 35.4°F1.9°C 93% 2.3 mph W3.7 kmh W 3.5 mph5.6 kmh 30.42 in1030.1 mb - 0.00 in0.0 mm 0.00 in0.0 mm
08:35 AM 37.2°F2.9°C 35.4°F1.9°C 93% 2.3 mph WSW3.7 kmh WSW 3.5 mph5.6 kmh 30.42 in1030.1 mb - 0.00 in0.0 mm 0.00 in0.0 mm
08:40 AM 37.2°F2.9°C 35.4°F1.9°C 93% 2.3 mph NW3.7 kmh NW 3.5 mph5.6 kmh 30.42 in1030.1 mb - 0.00 in0.0 mm 0.00 in0.0 mm
08:45 AM 37.2°F2.9°C 35.4°F1.9°C 93% 3.5 mph WSW5.6 kmh WSW 3.5 mph5.6 kmh 30.43 in1030.5 mb - 0.00 in0.0 mm 0.00 in0.0 mm
08:50 AM 37.2°F2.9°C 35.4°F1.9°C 93% 3.5 mph WSW5.6 kmh WSW 4.6 mph7.4 kmh 30.42 in1030.1 mb - 0.00 in0.0 mm 0.00 in0.0 mm
08:55 AM 37.2°F2.9°C 35.4°F1.9°C 93% 3.5 mph WSW5.6 kmh WSW 4.6 mph7.4 kmh 30.42 in1030.1 mb - 0.00 in0.0 mm 0.00 in0.0 mm
09:00 AM 37.3°F2.9°C 35.5°F1.9°C 93% 4.6 mph W7.4 kmh W 5.8 mph9.3 kmh 30.42 in1030.1 mb - 0.00 in0.0 mm 0.00 in0.0 mm
09:05 AM 37.3°F2.9°C 35.5°F1.9°C 93% 2.3 mph W3.7 kmh W 3.5 mph5.6 kmh 30.42 in1030.1 mb - 0.00 in0.0 mm 0.00 in0.0 mm
09:10 AM 37.4°F3.0°C 35.6°F2.0°C 93% 2.3 mph W3.7 kmh W 2.3 mph3.7 kmh 30.42 in1030.1 mb - 0.00 in0.0 mm 0.00 in0.0 mm
09:15 AM 37.4°F3.0°C 35.6°F2.0°C 93% 2.3 mph WSW3.7 kmh WSW 3.5 mph5.6 kmh 30.42 in1030.1 mb - 0.00 in0.0 mm 0.00 in0.0 mm
09:20 AM 37.4°F3.0°C 35.6°F2.0°C 93% 1.2 mph SW1.9 kmh SW 2.3 mph3.7 kmh 30.42 in1030.1 mb - 0.00 in0.0 mm 0.00 in0.0 mm
09:25 AM 37.5°F3.1°C 35.7°F2.1°C 93% 3.5 mph SW5.6 kmh SW 4.6 mph7.4 kmh 30.42 in1030.1 mb - 0.00 in0.0 mm 0.00 in0.0 mm
09:30 AM 37.5°F3.1°C 35.7°F2.1°C 93% 3.5 mph W5.6 kmh W 3.5 mph5.6 kmh 30.42 in1030.1 mb - 0.00 in0.0 mm 0.00 in0.0 mm
09:35 AM 37.5°F3.1°C 35.6°F2.0°C 93% 3.5 mph W5.6 kmh W 3.5 mph5.6 kmh 30.41 in1029.8 mb - 0.00 in0.0 mm 0.00 in0.0 mm
09:40 AM 37.5°F3.1°C 35.6°F2.0°C 93% 3.5 mph WNW5.6 kmh WNW 5.8 mph9.3 kmh 30.42 in1030.1 mb - 0.00 in0.0 mm 0.00 in0.0 mm
09:45 AM 37.5°F3.1°C 35.4°F1.9°C 92% 2.3 mph W3.7 kmh W 3.5 mph5.6 kmh 30.42 in1030.1 mb - 0.00 in0.0 mm 0.00 in0.0 mm
09:50 AM 37.5°F3.1°C 35.4°F1.9°C 92% 2.3 mph WSW3.7 kmh WSW 4.6 mph7.4 kmh 30.42 in1030.1 mb - 0.00 in0.0 mm 0.00 in0.0 mm
09:55 AM 37.6°F3.1°C 35.5°F1.9°C 92% 3.5 mph WSW5.6 kmh WSW 6.9 mph11.1 kmh 30.42 in1030.1 mb - 0.00 in0.0 mm 0.00 in0.0 mm
10:00 AM 37.5°F3.1°C 35.4°F1.9°C 92% 3.5 mph WSW5.6 kmh WSW 5.8 mph9.3 kmh 30.41 in1029.8 mb - 0.00 in0.0 mm 0.00 in0.0 mm
10:05 AM 37.5°F3.1°C 35.4°F1.9°C 92% 4.6 mph WSW7.4 kmh WSW 4.6 mph7.4 kmh 30.41 in1029.8 mb - 0.00 in0.0 mm 0.00 in0.0 mm
10:10 AM 37.5°F3.1°C 35.4°F1.9°C 92% 2.3 mph WSW3.7 kmh WSW 5.8 mph9.3 kmh 30.41 in1029.8 mb - 0.00 in0.0 mm 0.00 in0.0 mm
10:15 AM 37.6°F3.1°C 35.5°F1.9°C 92% 2.3 mph WSW3.7 kmh WSW 4.6 mph7.4 kmh 30.41 in1029.8 mb - 0.00 in0.0 mm 0.00 in0.0 mm
10:20 AM 37.6°F3.1°C 35.5°F1.9°C 92% 2.3 mph W3.7 kmh W 3.5 mph5.6 kmh 30.41 in1029.8 mb - 0.00 in0.0 mm 0.00 in0.0 mm
10:25 AM 37.6°F3.1°C 35.5°F1.9°C 92% 2.3 mph W3.7 kmh W 3.5 mph5.6 kmh 30.41 in1029.8 mb - 0.00 in0.0 mm 0.00 in0.0 mm
10:30 AM 37.7°F3.2°C 35.6°F2.0°C 92% 3.5 mph WSW5.6 kmh WSW 4.6 mph7.4 kmh 30.41 in1029.8 mb - 0.00 in0.0 mm 0.00 in0.0 mm
10:35 AM 37.7°F3.2°C 35.6°F2.0°C 92% 3.5 mph WSW5.6 kmh WSW 5.8 mph9.3 kmh 30.41 in1029.8 mb - 0.00 in0.0 mm 0.00 in0.0 mm
10:40 AM 37.7°F3.2°C 35.6°F2.0°C 92% 3.5 mph WSW5.6 kmh WSW 4.6 mph7.4 kmh 30.41 in1029.8 mb - 0.00 in0.0 mm 0.00 in0.0 mm
10:45 AM 37.8°F3.2°C 35.7°F2.1°C 92% 4.6 mph WSW7.4 kmh WSW 6.9 mph11.1 kmh 30.40 in1029.5 mb - 0.00 in0.0 mm 0.00 in0.0 mm
10:50 AM 37.8°F3.2°C 35.7°F2.1°C 92% 5.8 mph WSW9.3 kmh WSW 4.6 mph7.4 kmh 30.40 in1029.5 mb - 0.00 in0.0 mm 0.00 in0.0 mm
10:55 AM 37.8°F3.2°C 35.7°F2.1°C 92% 5.8 mph WSW9.3 kmh WSW 8.1 mph13.0 kmh 30.40 in1029.5 mb - 0.00 in0.0 mm 0.00 in0.0 mm
11:00 AM 37.9°F3.3°C 35.8°F2.1°C 92% 5.8 mph WSW9.3 kmh WSW 8.1 mph13.0 kmh 30.39 in1029.1 mb - 0.00 in0.0 mm 0.00 in0.0 mm
11:05 AM 37.9°F3.3°C 35.8°F2.1°C 92% 4.6 mph WSW7.4 kmh WSW 9.2 mph14.8 kmh 30.39 in1029.1 mb - 0.00 in0.0 mm 0.00 in0.0 mm
11:10 AM 37.9°F3.3°C 35.8°F2.1°C 92% 3.5 mph SW5.6 kmh SW 8.1 mph13.0 kmh 30.39 in1029.1 mb - 0.00 in0.0 mm 0.00 in0.0 mm
11:15 AM 38.0°F3.3°C 35.9°F2.2°C 92% 5.8 mph WSW9.3 kmh WSW 6.9 mph11.1 kmh 30.39 in1029.1 mb - 0.00 in0.0 mm 0.00 in0.0 mm
11:20 AM 38.0°F3.3°C 35.9°F2.2°C 92% 3.5 mph WSW5.6 kmh WSW 4.6 mph7.4 kmh 30.39 in1029.1 mb - 0.00 in0.0 mm 0.00 in0.0 mm
11:25 AM 38.1°F3.4°C 36.0°F2.2°C 92% 5.8 mph WSW9.3 kmh WSW 8.1 mph13.0 kmh 30.39 in1029.1 mb - 0.00 in0.0 mm 0.00 in0.0 mm
11:30 AM 38.2°F3.4°C 36.1°F2.3°C 92% 6.9 mph WSW11.1 kmh WSW 9.2 mph14.8 kmh 30.38 in1028.8 mb - 0.00 in0.0 mm 0.00 in0.0 mm
11:35 AM 38.3°F3.5°C 36.2°F2.3°C 92% 8.1 mph WSW13.0 kmh WSW 10.4 mph16.7 kmh 30.38 in1028.8 mb - 0.00 in0.0 mm 0.00 in0.0 mm
11:40 AM 38.4°F3.6°C 36.3°F2.4°C 92% 6.9 mph WSW11.1 kmh WSW 10.4 mph16.7 kmh 30.38 in1028.8 mb - 0.00 in0.0 mm 0.00 in0.0 mm
11:45 AM 38.5°F3.6°C 36.3°F2.4°C 92% 4.6 mph W7.4 kmh W 6.9 mph11.1 kmh 30.37 in1028.4 mb - 0.00 in0.0 mm 0.00 in0.0 mm
11:50 AM 38.7°F3.7°C 36.5°F2.5°C 92% 5.8 mph W9.3 kmh W 10.4 mph16.7 kmh 30.37 in1028.4 mb - 0.00 in0.0 mm 0.00 in0.0 mm
11:55 AM 38.7°F3.7°C 36.6°F2.6°C 92% 6.9 mph WSW11.1 kmh WSW 9.2 mph14.8 kmh 30.37 in1028.4 mb - 0.00 in0.0 mm 0.00 in0.0 mm
12:00 PM 38.7°F3.7°C 36.6°F2.6°C 92% 6.9 mph WSW11.1 kmh WSW 8.1 mph13.0 kmh 30.37 in1028.4 mb - 0.00 in0.0 mm 0.00 in0.0 mm
12:05 PM 38.8°F3.8°C 36.7°F2.6°C 92% 4.6 mph WSW7.4 kmh WSW 5.8 mph9.3 kmh 30.36 in1028.1 mb - 0.00 in0.0 mm 0.00 in0.0 mm
12:10 PM 38.9°F3.8°C 36.8°F2.7°C 92% 5.8 mph SW9.3 kmh SW 5.8 mph9.3 kmh 30.36 in1028.1 mb - 0.00 in0.0 mm 0.00 in0.0 mm
12:15 PM 38.9°F3.8°C 36.8°F2.7°C 92% 8.1 mph WSW13.0 kmh WSW 10.4 mph16.7 kmh 30.36 in1028.1 mb - 0.00 in0.0 mm 0.00 in0.0 mm
12:20 PM 38.9°F3.8°C 36.8°F2.7°C 92% 9.2 mph WSW14.8 kmh WSW 11.5 mph18.5 kmh 30.35 in1027.8 mb - 0.00 in0.0 mm 0.00 in0.0 mm
12:25 PM 38.9°F3.8°C 36.8°F2.7°C 92% 5.8 mph WSW9.3 kmh WSW 8.1 mph13.0 kmh 30.34 in1027.4 mb - 0.00 in0.0 mm 0.00 in0.0 mm
12:30 PM 38.9°F3.8°C 36.8°F2.7°C 92% 8.1 mph WSW13.0 kmh WSW 12.7 mph20.4 kmh 30.34 in1027.4 mb - 0.00 in0.0 mm 0.00 in0.0 mm
12:35 PM 38.9°F3.8°C 36.8°F2.7°C 92% 8.1 mph WSW13.0 kmh WSW 11.5 mph18.5 kmh 30.34 in1027.4 mb - 0.00 in0.0 mm 0.00 in0.0 mm
12:40 PM 38.9°F3.8°C 36.8°F2.7°C 92% 8.1 mph WSW13.0 kmh WSW 10.4 mph16.7 kmh 30.33 in1027.1 mb - 0.00 in0.0 mm 0.00 in0.0 mm
12:45 PM 38.9°F3.8°C 36.8°F2.7°C 92% 9.2 mph WSW14.8 kmh WSW 13.8 mph22.2 kmh 30.33 in1027.1 mb - 0.00 in0.0 mm 0.00 in0.0 mm
12:50 PM 39.0°F3.9°C 36.9°F2.7°C 92% 4.6 mph WSW7.4 kmh WSW 5.8 mph9.3 kmh 30.33 in1027.1 mb - 0.00 in0.0 mm 0.00 in0.0 mm
12:55 PM 39.1°F3.9°C 37.0°F2.8°C 92% 9.2 mph WSW14.8 kmh WSW 11.5 mph18.5 kmh 30.32 in1026.8 mb - 0.00 in0.0 mm 0.00 in0.0 mm
01:00 PM 39.1°F3.9°C 37.0°F2.8°C 92% 8.1 mph WSW13.0 kmh WSW 10.4 mph16.7 kmh 30.32 in1026.8 mb - 0.00 in0.0 mm 0.00 in0.0 mm
01:05 PM 39.2°F4.0°C 37.1°F2.8°C 92% 3.5 mph W5.6 kmh W 10.4 mph16.7 kmh 30.32 in1026.8 mb - 0.00 in0.0 mm 0.00 in0.0 mm
01:10 PM 39.3°F4.1°C 37.2°F2.9°C 92% 5.8 mph WSW9.3 kmh WSW 8.1 mph13.0 kmh 30.32 in1026.8 mb - 0.00 in0.0 mm 0.00 in0.0 mm
01:15 PM 39.3°F4.1°C 37.2°F2.9°C 92% 4.6 mph WSW7.4 kmh WSW 6.9 mph11.1 kmh 30.31 in1026.4 mb - 0.00 in0.0 mm 0.00 in0.0 mm
01:20 PM 39.1°F3.9°C 37.0°F2.8°C 92% 3.5 mph WSW5.6 kmh WSW 4.6 mph7.4 kmh 30.31 in1026.4 mb - 0.00 in0.0 mm 0.00 in0.0 mm
01:25 PM 39.1°F3.9°C 37.0°F2.8°C 92% 6.9 mph WSW11.1 kmh WSW 10.4 mph16.7 kmh 30.31 in1026.4 mb - 0.00 in0.0 mm 0.00 in0.0 mm
01:30 PM 39.1°F3.9°C 37.0°F2.8°C 92% 5.8 mph WSW9.3 kmh WSW 9.2 mph14.8 kmh 30.31 in1026.4 mb - 0.00 in0.0 mm 0.00 in0.0 mm
01:35 PM 39.1°F3.9°C 37.0°F2.8°C 92% 5.8 mph WSW9.3 kmh WSW 8.1 mph13.0 kmh 30.30 in1026.1 mb - 0.00 in0.0 mm 0.00 in0.0 mm
01:40 PM 39.2°F4.0°C 37.1°F2.8°C 92% 6.9 mph SW11.1 kmh SW 10.4 mph16.7 kmh 30.31 in1026.4 mb - 0.00 in0.0 mm 0.00 in0.0 mm
01:45 PM 39.3°F4.1°C 37.1°F2.8°C 92% 6.9 mph W11.1 kmh W 11.5 mph18.5 kmh 30.31 in1026.4 mb - 0.00 in0.0 mm 0.00 in0.0 mm
01:50 PM 39.2°F4.0°C 37.1°F2.8°C 92% 5.8 mph WSW9.3 kmh WSW 9.2 mph14.8 kmh 30.30 in1026.1 mb - 0.00 in0.0 mm 0.00 in0.0 mm
01:55 PM 39.3°F4.1°C 37.2°F2.9°C 92% 6.9 mph WSW11.1 kmh WSW 9.2 mph14.8 kmh 30.30 in1026.1 mb - 0.00 in0.0 mm 0.00 in0.0 mm
02:00 PM 39.4°F4.1°C 37.3°F2.9°C 92% 9.2 mph WSW14.8 kmh WSW 11.5 mph18.5 kmh 30.30 in1026.1 mb - 0.00 in0.0 mm 0.00 in0.0 mm
02:05 PM 39.4°F4.1°C 37.3°F2.9°C 92% 2.3 mph SW3.7 kmh SW 2.3 mph3.7 kmh 30.30 in1026.1 mb - 0.00 in0.0 mm 0.00 in0.0 mm
02:10 PM 39.6°F4.2°C 37.5°F3.1°C 92% 3.5 mph WNW5.6 kmh WNW 5.8 mph9.3 kmh 30.29 in1025.7 mb - 0.00 in0.0 mm 0.00 in0.0 mm
02:15 PM 39.7°F4.3°C 37.6°F3.1°C 92% 3.5 mph W5.6 kmh W 3.5 mph5.6 kmh 30.29 in1025.7 mb - 0.00 in0.0 mm 0.00 in0.0 mm
02:20 PM 39.7°F4.3°C 37.6°F3.1°C 92% 9.2 mph SW14.8 kmh SW 11.5 mph18.5 kmh 30.29 in1025.7 mb - 0.00 in0.0 mm 0.00 in0.0 mm
02:25 PM 39.7°F4.3°C 37.6°F3.1°C 92% 5.8 mph WSW9.3 kmh WSW 9.2 mph14.8 kmh 30.29 in1025.7 mb - 0.00 in0.0 mm 0.00 in0.0 mm
02:30 PM 39.6°F4.2°C 37.5°F3.1°C 92% 6.9 mph SW11.1 kmh SW 9.2 mph14.8 kmh 30.29 in1025.7 mb - 0.00 in0.0 mm 0.00 in0.0 mm
02:35 PM 39.5°F4.2°C 37.4°F3.0°C 92% 8.1 mph WSW13.0 kmh WSW 11.5 mph18.5 kmh 30.28 in1025.4 mb - 0.00 in0.0 mm 0.00 in0.0 mm
02:40 PM 39.4°F4.1°C 37.3°F2.9°C 92% 5.8 mph WSW9.3 kmh WSW 8.1 mph13.0 kmh 30.28 in1025.4 mb - 0.00 in0.0 mm 0.00 in0.0 mm
02:45 PM 39.3°F4.1°C 37.2°F2.9°C 92% 6.9 mph WSW11.1 kmh WSW 9.2 mph14.8 kmh 30.27 in1025.1 mb - 0.00 in0.0 mm 0.00 in0.0 mm
02:50 PM 39.4°F4.1°C 37.3°F2.9°C 92% 6.9 mph W11.1 kmh W 11.5 mph18.5 kmh 30.27 in1025.1 mb - 0.00 in0.0 mm 0.00 in0.0 mm
02:55 PM 39.4°F4.1°C 37.3°F2.9°C 92% 8.1 mph WSW13.0 kmh WSW 11.5 mph18.5 kmh 30.27 in1025.1 mb - 0.00 in0.0 mm 0.00 in0.0 mm
03:00 PM 39.3°F4.1°C 37.2°F2.9°C 92% 6.9 mph WSW11.1 kmh WSW 10.4 mph16.7 kmh 30.26 in1024.7 mb - 0.00 in0.0 mm 0.00 in0.0 mm
03:05 PM 39.4°F4.1°C 37.3°F2.9°C 92% 5.8 mph SW9.3 kmh SW 10.4 mph16.7 kmh 30.25 in1024.4 mb - 0.00 in0.0 mm 0.00 in0.0 mm
03:10 PM 39.5°F4.2°C 37.4°F3.0°C 92% 6.9 mph WSW11.1 kmh WSW 6.9 mph11.1 kmh 30.26 in1024.7 mb - 0.00 in0.0 mm 0.00 in0.0 mm
03:15 PM 39.5°F4.2°C 37.4°F3.0°C 92% 5.8 mph WSW9.3 kmh WSW 11.5 mph18.5 kmh 30.25 in1024.4 mb - 0.00 in0.0 mm 0.00 in0.0 mm
03:20 PM 39.6°F4.2°C 37.4°F3.0°C 92% 3.5 mph W5.6 kmh W 3.5 mph5.6 kmh 30.26 in1024.7 mb - 0.00 in0.0 mm 0.00 in0.0 mm
03:25 PM 39.6°F4.2°C 37.5°F3.1°C 92% 6.9 mph W11.1 kmh W 11.5 mph18.5 kmh 30.25 in1024.4 mb - 0.00 in0.0 mm 0.00 in0.0 mm
03:30 PM 39.6°F4.2°C 37.4°F3.0°C 92% 5.8 mph WSW9.3 kmh WSW 6.9 mph11.1 kmh 30.25 in1024.4 mb - 0.00 in0.0 mm 0.00 in0.0 mm
03:35 PM 39.5°F4.2°C 37.4°F3.0°C 92% 10.4 mph SW16.7 kmh SW 13.8 mph22.2 kmh 30.25 in1024.4 mb - 0.00 in0.0 mm 0.00 in0.0 mm
03:40 PM 39.5°F4.2°C 37.4°F3.0°C 92% 9.2 mph WSW14.8 kmh WSW 12.7 mph20.4 kmh 30.25 in1024.4 mb - 0.00 in0.0 mm 0.00 in0.0 mm
03:45 PM 39.5°F4.2°C 37.4°F3.0°C 92% 9.2 mph WSW14.8 kmh WSW 13.8 mph22.2 kmh 30.25 in1024.4 mb - 0.00 in0.0 mm 0.00 in0.0 mm
03:50 PM 39.5°F4.2°C 37.4°F3.0°C 92% 8.1 mph W13.0 kmh W 9.2 mph14.8 kmh 30.25 in1024.4 mb - 0.00 in0.0 mm 0.00 in0.0 mm
03:55 PM 39.5°F4.2°C 37.4°F3.0°C 92% 8.1 mph W13.0 kmh W 11.5 mph18.5 kmh 30.25 in1024.4 mb - 0.00 in0.0 mm 0.00 in0.0 mm
04:00 PM 39.5°F4.2°C 37.4°F3.0°C 92% 8.1 mph WSW13.0 kmh WSW 10.4 mph16.7 kmh 30.25 in1024.4 mb - 0.00 in0.0 mm 0.00 in0.0 mm
04:05 PM 39.6°F4.2°C 37.5°F3.1°C 92% 3.5 mph WNW5.6 kmh WNW 6.9 mph11.1 kmh 30.24 in1024.0 mb - 0.00 in0.0 mm 0.00 in0.0 mm
04:10 PM 39.6°F4.2°C 37.5°F3.1°C 92% 5.8 mph WSW9.3 kmh WSW 10.4 mph16.7 kmh 30.24 in1024.0 mb - 0.00 in0.0 mm 0.00 in0.0 mm
04:15 PM 39.6°F4.2°C 37.5°F3.1°C 92% 8.1 mph WSW13.0 kmh WSW 11.5 mph18.5 kmh 30.24 in1024.0 mb - 0.00 in0.0 mm 0.00 in0.0 mm
04:20 PM 39.5°F4.2°C 37.4°F3.0°C 92% 9.2 mph WSW14.8 kmh WSW 11.5 mph18.5 kmh 30.23 in1023.7 mb - 0.00 in0.0 mm 0.00 in0.0 mm
04:25 PM 39.5°F4.2°C 37.4°F3.0°C 92% 8.1 mph WSW13.0 kmh WSW 10.4 mph16.7 kmh 30.23 in1023.7 mb - 0.00 in0.0 mm 0.00 in0.0 mm
04:30 PM 39.5°F4.2°C 37.4°F3.0°C 92% 5.8 mph W9.3 kmh W 5.8 mph9.3 kmh 30.23 in1023.7 mb - 0.00 in0.0 mm 0.00 in0.0 mm
04:35 PM 39.5°F4.2°C 37.4°F3.0°C 92% 9.2 mph WSW14.8 kmh WSW 11.5 mph18.5 kmh 30.23 in1023.7 mb - 0.00 in0.0 mm 0.00 in0.0 mm
04:40 PM 39.4°F4.1°C 37.3°F2.9°C 92% 8.1 mph WSW13.0 kmh WSW 11.5 mph18.5 kmh 30.23 in1023.7 mb - 0.00 in0.0 mm 0.00 in0.0 mm
04:45 PM 39.4°F4.1°C 37.3°F2.9°C 92% 8.1 mph WSW13.0 kmh WSW 10.4 mph16.7 kmh 30.23 in1023.7 mb - 0.00 in0.0 mm 0.00 in0.0 mm
04:50 PM 39.4°F4.1°C 37.3°F2.9°C 92% 6.9 mph WSW11.1 kmh WSW 11.5 mph18.5 kmh 30.23 in1023.7 mb - 0.00 in0.0 mm 0.00 in0.0 mm
04:55 PM 39.4°F4.1°C 37.3°F2.9°C 92% 8.1 mph WSW13.0 kmh WSW 13.8 mph22.2 kmh 30.23 in1023.7 mb - 0.00 in0.0 mm 0.00 in0.0 mm
05:00 PM 39.4°F4.1°C 37.3°F2.9°C 92% 8.1 mph WSW13.0 kmh WSW 11.5 mph18.5 kmh 30.22 in1023.4 mb - 0.00 in0.0 mm 0.00 in0.0 mm
05:05 PM 39.3°F4.1°C 37.2°F2.9°C 92% 5.8 mph W9.3 kmh W 6.9 mph11.1 kmh 30.22 in1023.4 mb - 0.00 in0.0 mm 0.00 in0.0 mm
05:10 PM 39.3°F4.1°C 37.2°F2.9°C 92% 6.9 mph WSW11.1 kmh WSW 8.1 mph13.0 kmh 30.22 in1023.4 mb - 0.00 in0.0 mm 0.00 in0.0 mm
05:15 PM 39.2°F4.0°C 37.1°F2.8°C 92% 4.6 mph WSW7.4 kmh WSW 8.1 mph13.0 kmh 30.21 in1023.0 mb - 0.00 in0.0 mm 0.00 in0.0 mm
05:20 PM 39.1°F3.9°C 37.0°F2.8°C 92% 5.8 mph WSW9.3 kmh WSW 8.1 mph13.0 kmh 30.21 in1023.0 mb - 0.00 in0.0 mm 0.00 in0.0 mm
05:25 PM 39.0°F3.9°C 36.9°F2.7°C 92% 5.8 mph WSW9.3 kmh WSW 8.1 mph13.0 kmh 30.21 in1023.0 mb - 0.00 in0.0 mm 0.00 in0.0 mm
05:30 PM 38.9°F3.8°C 36.8°F2.7°C 92% 5.8 mph WSW9.3 kmh WSW 8.1 mph13.0 kmh 30.22 in1023.4 mb - 0.00 in0.0 mm 0.00 in0.0 mm
05:35 PM 38.8°F3.8°C 36.7°F2.6°C 92% 5.8 mph WSW9.3 kmh WSW 8.1 mph13.0 kmh 30.21 in1023.0 mb - 0.00 in0.0 mm 0.00 in0.0 mm
05:40 PM 38.8°F3.8°C 36.7°F2.6°C 92% 4.6 mph WSW7.4 kmh WSW 6.9 mph11.1 kmh 30.21 in1023.0 mb - 0.00 in0.0 mm 0.00 in0.0 mm
05:45 PM 38.7°F3.7°C 36.6°F2.6°C 92% 4.6 mph WSW7.4 kmh WSW 4.6 mph7.4 kmh 30.21 in1023.0 mb - 0.00 in0.0 mm 0.00 in0.0 mm
05:50 PM 38.6°F3.7°C 36.5°F2.5°C 92% 4.6 mph WSW7.4 kmh WSW 8.1 mph13.0 kmh 30.21 in1023.0 mb - 0.00 in0.0 mm 0.00 in0.0 mm
05:55 PM 38.5°F3.6°C 36.4°F2.4°C 92% 5.8 mph WSW9.3 kmh WSW 8.1 mph13.0 kmh 30.21 in1023.0 mb - 0.00 in0.0 mm 0.00 in0.0 mm
06:00 PM 38.4°F3.6°C 36.3°F2.4°C 92% 4.6 mph WSW7.4 kmh WSW 5.8 mph9.3 kmh 30.21 in1023.0 mb - 0.00 in0.0 mm 0.00 in0.0 mm
06:05 PM 38.3°F3.5°C 36.2°F2.3°C 92% 4.6 mph WSW7.4 kmh WSW 5.8 mph9.3 kmh 30.20 in1022.7 mb - 0.00 in0.0 mm 0.00 in0.0 mm
06:10 PM 38.2°F3.4°C 36.1°F2.3°C 92% 4.6 mph SW7.4 kmh SW 6.9 mph11.1 kmh 30.20 in1022.7 mb - 0.00 in0.0 mm 0.00 in0.0 mm
06:15 PM 38.0°F3.3°C 35.9°F2.2°C 92% 5.8 mph WSW9.3 kmh WSW 8.1 mph13.0 kmh 30.20 in1022.7 mb - 0.00 in0.0 mm 0.00 in0.0 mm
06:20 PM 37.9°F3.3°C 35.8°F2.1°C 92% 6.9 mph WSW11.1 kmh WSW 10.4 mph16.7 kmh 30.20 in1022.7 mb - 0.00 in0.0 mm 0.00 in0.0 mm
06:25 PM 37.8°F3.2°C 35.7°F2.1°C 92% 4.6 mph WSW7.4 kmh WSW 6.9 mph11.1 kmh 30.19 in1022.4 mb - 0.00 in0.0 mm 0.00 in0.0 mm
06:30 PM 37.7°F3.2°C 35.6°F2.0°C 92% 5.8 mph WSW9.3 kmh WSW 8.1 mph13.0 kmh 30.19 in1022.4 mb - 0.00 in0.0 mm 0.00 in0.0 mm
06:35 PM 37.6°F3.1°C 35.5°F1.9°C 92% 3.5 mph WSW5.6 kmh WSW 8.1 mph13.0 kmh 30.19 in1022.4 mb - 0.00 in0.0 mm 0.00 in0.0 mm
06:40 PM 37.5°F3.1°C 35.4°F1.9°C 92% 4.6 mph WSW7.4 kmh WSW 5.8 mph9.3 kmh 30.19 in1022.4 mb - 0.00 in0.0 mm 0.00 in0.0 mm
06:45 PM 37.4°F3.0°C 35.3°F1.8°C 92% 4.6 mph WSW7.4 kmh WSW 6.9 mph11.1 kmh 30.19 in1022.4 mb - 0.00 in0.0 mm 0.00 in0.0 mm
06:50 PM 37.3°F2.9°C 35.2°F1.8°C 92% 3.5 mph WSW5.6 kmh WSW 8.1 mph13.0 kmh 30.19 in1022.4 mb - 0.00 in0.0 mm 0.00 in0.0 mm
06:55 PM 37.2°F2.9°C 35.1°F1.7°C 92% 5.8 mph WSW9.3 kmh WSW 9.2 mph14.8 kmh 30.19 in1022.4 mb - 0.00 in0.0 mm 0.00 in0.0 mm
07:00 PM 37.1°F2.8°C 35.0°F1.7°C 92% 5.8 mph WSW9.3 kmh WSW 8.1 mph13.0 kmh 30.19 in1022.4 mb - 0.00 in0.0 mm 0.00 in0.0 mm
07:05 PM 37.1°F2.8°C 35.0°F1.7°C 92% 4.6 mph WSW7.4 kmh WSW 4.6 mph7.4 kmh 30.19 in1022.4 mb - 0.00 in0.0 mm 0.00 in0.0 mm
07:10 PM 37.0°F2.8°C 34.9°F1.6°C 92% 6.9 mph WSW11.1 kmh WSW 8.1 mph13.0 kmh 30.18 in1022.0 mb - 0.00 in0.0 mm 0.00 in0.0 mm
07:15 PM 36.9°F2.7°C 34.8°F1.6°C 92% 5.8 mph WSW9.3 kmh WSW 8.1 mph13.0 kmh 30.18 in1022.0 mb - 0.00 in0.0 mm 0.00 in0.0 mm
07:20 PM 36.8°F2.7°C 34.7°F1.5°C 92% 4.6 mph WSW7.4 kmh WSW 10.4 mph16.7 kmh 30.18 in1022.0 mb - 0.00 in0.0 mm 0.00 in0.0 mm
07:25 PM 36.8°F2.7°C 35.0°F1.7°C 93% 5.8 mph WSW9.3 kmh WSW 8.1 mph13.0 kmh 30.18 in1022.0 mb - 0.00 in0.0 mm 0.00 in0.0 mm
07:30 PM 36.7°F2.6°C 34.8°F1.6°C 93% 5.8 mph WSW9.3 kmh WSW 9.2 mph14.8 kmh 30.18 in1022.0 mb - 0.00 in0.0 mm 0.00 in0.0 mm
07:35 PM 36.6°F2.6°C 34.8°F1.6°C 93% 5.8 mph WSW9.3 kmh WSW 8.1 mph13.0 kmh 30.17 in1021.7 mb - 0.00 in0.0 mm 0.00 in0.0 mm
07:40 PM 36.5°F2.5°C 34.4°F1.3°C 92% 5.8 mph WSW9.3 kmh WSW 6.9 mph11.1 kmh 30.17 in1021.7 mb - 0.00 in0.0 mm 0.00 in0.0 mm
07:45 PM 36.5°F2.5°C 34.4°F1.3°C 92% 3.5 mph WSW5.6 kmh WSW 5.8 mph9.3 kmh 30.18 in1022.0 mb - 0.00 in0.0 mm 0.00 in0.0 mm
07:50 PM 36.4°F2.4°C 34.6°F1.4°C 93% 4.6 mph W7.4 kmh W 8.1 mph13.0 kmh 30.18 in1022.0 mb - 0.00 in0.0 mm 0.00 in0.0 mm
07:55 PM 36.3°F2.4°C 34.5°F1.4°C 93% 5.8 mph WSW9.3 kmh WSW 8.1 mph13.0 kmh 30.17 in1021.7 mb - 0.00 in0.0 mm 0.00 in0.0 mm
08:00 PM 36.2°F2.3°C 34.4°F1.3°C 93% 4.6 mph WSW7.4 kmh WSW 5.8 mph9.3 kmh 30.17 in1021.7 mb - 0.00 in0.0 mm 0.00 in0.0 mm
08:05 PM 36.2°F2.3°C 34.4°F1.3°C 93% 4.6 mph WSW7.4 kmh WSW 8.1 mph13.0 kmh 30.16 in1021.3 mb - 0.00 in0.0 mm 0.00 in0.0 mm
08:10 PM 36.2°F2.3°C 34.4°F1.3°C 93% 5.8 mph WSW9.3 kmh WSW 8.1 mph13.0 kmh 30.16 in1021.3 mb - 0.00 in0.0 mm 0.00 in0.0 mm
08:15 PM 36.1°F2.3°C 34.3°F1.3°C 93% 5.8 mph WSW9.3 kmh WSW 6.9 mph11.1 kmh 30.15 in1021.0 mb - 0.00 in0.0 mm 0.00 in0.0 mm
08:20 PM 36.1°F2.3°C 34.2°F1.2°C 93% 5.8 mph WSW9.3 kmh WSW 9.2 mph14.8 kmh 30.15 in1021.0 mb - 0.00 in0.0 mm 0.00 in0.0 mm
08:25 PM 36.0°F2.2°C 34.1°F1.2°C 93% 4.6 mph WSW7.4 kmh WSW 6.9 mph11.1 kmh 30.14 in1020.7 mb - 0.00 in0.0 mm 0.00 in0.0 mm
08:30 PM 35.9°F2.2°C 34.0°F1.1°C 93% 4.6 mph WSW7.4 kmh WSW 5.8 mph9.3 kmh 30.14 in1020.7 mb - 0.00 in0.0 mm 0.00 in0.0 mm
08:35 PM 35.7°F2.1°C 33.9°F1.1°C 93% 3.5 mph WSW5.6 kmh WSW 4.6 mph7.4 kmh 30.13 in1020.3 mb - 0.00 in0.0 mm 0.00 in0.0 mm
08:40 PM 35.6°F2.0°C 33.8°F1.0°C 93% 3.5 mph WSW5.6 kmh WSW 3.5 mph5.6 kmh 30.13 in1020.3 mb - 0.00 in0.0 mm 0.00 in0.0 mm
08:45 PM 35.5°F1.9°C 33.7°F0.9°C 93% 2.3 mph W3.7 kmh W 3.5 mph5.6 kmh 30.14 in1020.7 mb - 0.00 in0.0 mm 0.00 in0.0 mm
08:50 PM 35.5°F1.9°C 33.7°F0.9°C 93% 2.3 mph W3.7 kmh W 3.5 mph5.6 kmh 30.13 in1020.3 mb - 0.00 in0.0 mm 0.00 in0.0 mm
08:55 PM 35.5°F1.9°C 33.7°F0.9°C 93% 2.3 mph W3.7 kmh W 3.5 mph5.6 kmh 30.13 in1020.3 mb - 0.00 in0.0 mm 0.00 in0.0 mm
09:00 PM 35.6°F2.0°C 33.8°F1.0°C 93% 1.2 mph WNW1.9 kmh WNW 2.3 mph3.7 kmh 30.12 in1020.0 mb - 0.00 in0.0 mm 0.00 in0.0 mm
09:05 PM 35.6°F2.0°C 33.8°F1.0°C 93% 1.2 mph WNW1.9 kmh WNW 2.3 mph3.7 kmh 30.12 in1020.0 mb - 0.00 in0.0 mm 0.00 in0.0 mm
09:10 PM 35.6°F2.0°C 33.8°F1.0°C 93% 1.2 mph WNW1.9 kmh WNW 3.5 mph5.6 kmh 30.12 in1020.0 mb - 0.00 in0.0 mm 0.00 in0.0 mm
09:15 PM 35.5°F1.9°C 33.7°F0.9°C 93% 1.2 mph NW1.9 kmh NW 3.5 mph5.6 kmh 30.12 in1020.0 mb - 0.00 in0.0 mm 0.00 in0.0 mm
09:20 PM 35.4°F1.9°C 33.6°F0.9°C 93% 1.2 mph NW1.9 kmh NW 2.3 mph3.7 kmh 30.12 in1020.0 mb - 0.00 in0.0 mm 0.00 in0.0 mm
09:25 PM 35.3°F1.8°C 33.5°F0.8°C 93% 1.2 mph NNW1.9 kmh NNW 2.3 mph3.7 kmh 30.11 in1019.6 mb - 0.00 in0.0 mm 0.00 in0.0 mm
09:30 PM 35.2°F1.8°C 33.4°F0.8°C 93% 2.3 mph NNW3.7 kmh NNW 3.5 mph5.6 kmh 30.11 in1019.6 mb - 0.00 in0.0 mm 0.00 in0.0 mm
09:35 PM 35.2°F1.8°C 33.4°F0.8°C 93% 2.3 mph NW3.7 kmh NW 3.5 mph5.6 kmh 30.11 in1019.6 mb - 0.00 in0.0 mm 0.00 in0.0 mm
09:40 PM 35.2°F1.8°C 33.4°F0.8°C 93% 2.3 mph WNW3.7 kmh WNW 3.5 mph5.6 kmh 30.11 in1019.6 mb - 0.00 in0.0 mm 0.00 in0.0 mm
09:45 PM 35.2°F1.8°C 33.4°F0.8°C 93% 1.2 mph WNW1.9 kmh WNW 2.3 mph3.7 kmh 30.10 in1019.3 mb - 0.00 in0.0 mm 0.00 in0.0 mm
09:50 PM 35.2°F1.8°C 33.3°F0.7°C 93% 2.3 mph NW3.7 kmh NW 4.6 mph7.4 kmh 30.10 in1019.3 mb - 0.00 in0.0 mm 0.00 in0.0 mm
09:55 PM 35.2°F1.8°C 33.4°F0.8°C 93% 2.3 mph NW3.7 kmh NW 3.5 mph5.6 kmh 30.10 in1019.3 mb - 0.00 in0.0 mm 0.00 in0.0 mm
10:00 PM 35.2°F1.8°C 33.4°F0.8°C 93% 3.5 mph NW5.6 kmh NW 4.6 mph7.4 kmh 30.10 in1019.3 mb - 0.00 in0.0 mm 0.00 in0.0 mm
10:05 PM 35.2°F1.8°C 33.4°F0.8°C 93% 2.3 mph NW3.7 kmh NW 3.5 mph5.6 kmh 30.09 in1019.0 mb - 0.00 in0.0 mm 0.00 in0.0 mm
10:10 PM 35.2°F1.8°C 33.4°F0.8°C 93% 2.3 mph NW3.7 kmh NW 3.5 mph5.6 kmh 30.10 in1019.3 mb - 0.00 in0.0 mm 0.00 in0.0 mm
10:15 PM 35.2°F1.8°C 33.4°F0.8°C 93% 3.5 mph NW5.6 kmh NW 3.5 mph5.6 kmh 30.10 in1019.3 mb - 0.00 in0.0 mm 0.00 in0.0 mm
10:20 PM 35.2°F1.8°C 33.4°F0.8°C 93% 2.3 mph NW3.7 kmh NW 3.5 mph5.6 kmh 30.09 in1019.0 mb - 0.00 in0.0 mm 0.00 in0.0 mm
10:25 PM 35.2°F1.8°C 33.4°F0.8°C 93% 2.3 mph WNW3.7 kmh WNW 3.5 mph5.6 kmh 30.09 in1019.0 mb - 0.00 in0.0 mm 0.00 in0.0 mm
10:30 PM 35.2°F1.8°C 33.4°F0.8°C 93% 3.5 mph WNW5.6 kmh WNW 6.9 mph11.1 kmh 30.09 in1019.0 mb - 0.00 in0.0 mm 0.00 in0.0 mm
10:35 PM 35.3°F1.8°C 33.5°F0.8°C 93% 3.5 mph W5.6 kmh W 4.6 mph7.4 kmh 30.08 in1018.6 mb - 0.00 in0.0 mm 0.00 in0.0 mm
10:40 PM 35.3°F1.8°C 33.5°F0.8°C 93% 3.5 mph WNW5.6 kmh WNW 3.5 mph5.6 kmh 30.08 in1018.6 mb - 0.00 in0.0 mm 0.00 in0.0 mm
10:45 PM 35.3°F1.8°C 33.5°F0.8°C 93% 3.5 mph W5.6 kmh W 3.5 mph5.6 kmh 30.08 in1018.6 mb - 0.00 in0.0 mm 0.00 in0.0 mm
10:50 PM 35.2°F1.8°C 33.4°F0.8°C 93% 3.5 mph W5.6 kmh W 3.5 mph5.6 kmh 30.07 in1018.3 mb - 0.00 in0.0 mm 0.00 in0.0 mm
10:55 PM 35.1°F1.7°C 33.3°F0.7°C 93% 2.3 mph W3.7 kmh W 3.5 mph5.6 kmh 30.07 in1018.3 mb - 0.00 in0.0 mm 0.00 in0.0 mm
11:00 PM 35.1°F1.7°C 33.2°F0.7°C 93% 2.3 mph W3.7 kmh W 3.5 mph5.6 kmh 30.07 in1018.3 mb - 0.00 in0.0 mm 0.00 in0.0 mm
11:05 PM 34.9°F1.6°C 33.1°F0.6°C 93% 2.3 mph WSW3.7 kmh WSW 3.5 mph5.6 kmh 30.07 in1018.3 mb - 0.00 in0.0 mm 0.00 in0.0 mm
11:10 PM 34.8°F1.6°C 33.0°F0.6°C 93% 1.2 mph WSW1.9 kmh WSW 2.3 mph3.7 kmh 30.06 in1017.9 mb - 0.00 in0.0 mm 0.00 in0.0 mm
11:15 PM 34.6°F1.4°C 32.8°F0.4°C 93% 2.3 mph WSW3.7 kmh WSW 3.5 mph5.6 kmh 30.07 in1018.3 mb - 0.00 in0.0 mm 0.00 in0.0 mm
11:20 PM 34.6°F1.4°C 32.8°F0.4°C 93% 2.3 mph WSW3.7 kmh WSW 3.5 mph5.6 kmh 30.07 in1018.3 mb - 0.00 in0.0 mm 0.00 in0.0 mm
11:25 PM 34.5°F1.4°C 32.6°F0.3°C 93% 2.3 mph WSW3.7 kmh WSW 3.5 mph5.6 kmh 30.07 in1018.3 mb - 0.00 in0.0 mm 0.00 in0.0 mm
11:30 PM 34.3°F1.3°C 32.5°F0.3°C 93% 4.6 mph SW7.4 kmh SW 4.6 mph7.4 kmh 30.06 in1017.9 mb - 0.00 in0.0 mm 0.00 in0.0 mm
11:35 PM 34.2°F1.2°C 32.4°F0.2°C 93% 2.3 mph SW3.7 kmh SW 3.5 mph5.6 kmh 30.06 in1017.9 mb - 0.00 in0.0 mm 0.00 in0.0 mm
11:40 PM 34.1°F1.2°C 32.3°F0.2°C 93% 4.6 mph SW7.4 kmh SW 4.6 mph7.4 kmh 30.05 in1017.6 mb - 0.00 in0.0 mm 0.00 in0.0 mm
11:45 PM 34.0°F1.1°C 32.2°F0.1°C 93% 3.5 mph SW5.6 kmh SW 4.6 mph7.4 kmh 30.05 in1017.6 mb - 0.00 in0.0 mm 0.00 in0.0 mm
11:50 PM 33.8°F1.0°C 32.0°F0.0°C 93% 4.6 mph SW7.4 kmh SW 4.6 mph7.4 kmh 30.05 in1017.6 mb - 0.00 in0.0 mm 0.00 in0.0 mm
11:55 PM 33.6°F0.9°C 31.8°F-0.1°C 93% 3.5 mph SW5.6 kmh SW 6.9 mph11.1 kmh 30.05 in1017.6 mb - 0.00 in0.0 mm 0.00 in0.0 mm